sensor_id;sensor_type;location;lat;lon;timestamp;P1;durP1;ratioP1;P2;durP2;ratioP2
45694;SDS011;31408;45.468;9.124;2023-06-14T00:02:19;27.52;;;14.15;;
45694;SDS011;31408;45.468;9.124;2023-06-14T00:04:45;26.20;;;14.98;;
45694;SDS011;31408;45.468;9.124;2023-06-14T00:07:13;25.23;;;13.30;;
45694;SDS011;31408;45.468;9.124;2023-06-14T00:09:38;24.75;;;13.90;;
45694;SDS011;31408;45.468;9.124;2023-06-14T00:12:07;25.50;;;14.40;;
45694;SDS011;31408;45.468;9.124;2023-06-14T00:14:33;24.92;;;13.20;;
45694;SDS011;31408;45.468;9.124;2023-06-14T00:16:59;26.15;;;13.20;;
45694;SDS011;31408;45.468;9.124;2023-06-14T00:19:25;22.85;;;12.35;;
45694;SDS011;31408;45.468;9.124;2023-06-14T00:21:51;24.30;;;12.23;;
45694;SDS011;31408;45.468;9.124;2023-06-14T00:24:18;19.58;;;11.23;;
45694;SDS011;31408;45.468;9.124;2023-06-14T00:26:43;23.20;;;11.68;;
45694;SDS011;31408;45.468;9.124;2023-06-14T00:29:09;17.52;;;10.25;;
45694;SDS011;31408;45.468;9.124;2023-06-14T00:31:35;22.35;;;11.70;;
45694;SDS011;31408;45.468;9.124;2023-06-14T00:34:00;20.23;;;11.30;;
45694;SDS011;31408;45.468;9.124;2023-06-14T00:36:26;19.88;;;11.18;;
45694;SDS011;31408;45.468;9.124;2023-06-14T00:38:57;21.75;;;9.85;;
45694;SDS011;31408;45.468;9.124;2023-06-14T00:41:22;21.15;;;11.05;;
45694;SDS011;31408;45.468;9.124;2023-06-14T00:43:47;23.80;;;9.95;;
45694;SDS011;31408;45.468;9.124;2023-06-14T00:46:14;19.45;;;10.15;;
45694;SDS011;31408;45.468;9.124;2023-06-14T00:48:39;21.58;;;10.52;;
45694;SDS011;31408;45.468;9.124;2023-06-14T00:51:05;19.55;;;9.55;;
45694;SDS011;31408;45.468;9.124;2023-06-14T00:53:31;20.05;;;10.55;;
45694;SDS011;31408;45.468;9.124;2023-06-14T00:55:59;20.25;;;10.23;;
45694;SDS011;31408;45.468;9.124;2023-06-14T00:58:25;20.42;;;10.30;;
45694;SDS011;31408;45.468;9.124;2023-06-14T01:00:51;19.95;;;10.05;;
45694;SDS011;31408;45.468;9.124;2023-06-14T01:03:16;17.60;;;10.02;;
45694;SDS011;31408;45.468;9.124;2023-06-14T01:05:48;25.08;;;10.98;;
45694;SDS011;31408;45.468;9.124;2023-06-14T01:12:11;17.60;;;9.52;;
45694;SDS011;31408;45.468;9.124;2023-06-14T01:14:41;18.65;;;8.65;;
45694;SDS011;31408;45.468;9.124;2023-06-14T01:17:07;16.38;;;8.82;;
45694;SDS011;31408;45.468;9.124;2023-06-14T01:19:41;21.75;;;10.50;;
45694;SDS011;31408;45.468;9.124;2023-06-14T01:22:08;16.50;;;8.20;;
45694;SDS011;31408;45.468;9.124;2023-06-14T01:24:33;18.48;;;9.63;;
45694;SDS011;31408;45.468;9.124;2023-06-14T01:27:00;21.13;;;8.90;;
45694;SDS011;31408;45.468;9.124;2023-06-14T01:29:27;14.63;;;8.25;;
45694;SDS011;31408;45.468;9.124;2023-06-14T01:31:58;12.85;;;7.25;;
45694;SDS011;31408;45.468;9.124;2023-06-14T01:34:29;12.90;;;6.57;;
45694;SDS011;31408;45.468;9.124;2023-06-14T01:36:54;11.50;;;6.45;;
45694;SDS011;31408;45.468;9.124;2023-06-14T01:39:21;9.68;;;5.47;;
45694;SDS011;31408;45.468;9.124;2023-06-14T01:41:47;6.82;;;4.35;;
45694;SDS011;31408;45.468;9.124;2023-06-14T01:44:14;8.88;;;4.47;;
45694;SDS011;31408;45.468;9.124;2023-06-14T01:46:41;6.75;;;3.90;;
45694;SDS011;31408;45.468;9.124;2023-06-14T01:49:07;12.57;;;5.30;;
45694;SDS011;31408;45.468;9.124;2023-06-14T01:51:33;6.60;;;4.20;;
45694;SDS011;31408;45.468;9.124;2023-06-14T01:53:58;10.93;;;4.40;;
45694;SDS011;31408;45.468;9.124;2023-06-14T01:56:25;8.10;;;4.15;;
45694;SDS011;31408;45.468;9.124;2023-06-14T01:59:06;10.30;;;5.30;;
45694;SDS011;31408;45.468;9.124;2023-06-14T02:01:32;9.82;;;5.82;;
45694;SDS011;31408;45.468;9.124;2023-06-14T02:04:00;10.10;;;5.15;;
45694;SDS011;31408;45.468;9.124;2023-06-14T02:06:26;11.38;;;5.10;;
45694;SDS011;31408;45.468;9.124;2023-06-14T02:08:52;12.23;;;5.05;;
45694;SDS011;31408;45.468;9.124;2023-06-14T02:11:18;7.82;;;4.68;;
45694;SDS011;31408;45.468;9.124;2023-06-14T02:13:44;8.10;;;4.15;;
45694;SDS011;31408;45.468;9.124;2023-06-14T02:16:10;7.55;;;4.75;;
45694;SDS011;31408;45.468;9.124;2023-06-14T02:18:36;9.23;;;5.07;;
45694;SDS011;31408;45.468;9.124;2023-06-14T02:21:05;8.32;;;4.53;;
45694;SDS011;31408;45.468;9.124;2023-06-14T02:23:30;8.73;;;4.90;;
45694;SDS011;31408;45.468;9.124;2023-06-14T02:25:58;8.65;;;4.30;;
45694;SDS011;31408;45.468;9.124;2023-06-14T02:28:23;8.18;;;4.97;;
45694;SDS011;31408;45.468;9.124;2023-06-14T02:30:57;6.93;;;4.63;;
45694;SDS011;31408;45.468;9.124;2023-06-14T02:33:26;7.63;;;4.68;;
45694;SDS011;31408;45.468;9.124;2023-06-14T02:35:52;8.15;;;4.65;;
45694;SDS011;31408;45.468;9.124;2023-06-14T02:38:18;9.57;;;5.60;;
45694;SDS011;31408;45.468;9.124;2023-06-14T02:40:43;7.05;;;4.28;;
45694;SDS011;31408;45.468;9.124;2023-06-14T02:43:09;7.35;;;4.45;;
45694;SDS011;31408;45.468;9.124;2023-06-14T02:45:34;8.15;;;4.57;;
45694;SDS011;31408;45.468;9.124;2023-06-14T02:47:59;7.35;;;4.50;;
45694;SDS011;31408;45.468;9.124;2023-06-14T02:50:25;7.18;;;4.10;;
45694;SDS011;31408;45.468;9.124;2023-06-14T02:52:51;5.95;;;3.90;;
45694;SDS011;31408;45.468;9.124;2023-06-14T02:55:17;5.50;;;3.90;;
45694;SDS011;31408;45.468;9.124;2023-06-14T02:57:48;8.00;;;4.25;;
45694;SDS011;31408;45.468;9.124;2023-06-14T03:00:15;6.57;;;4.05;;
45694;SDS011;31408;45.468;9.124;2023-06-14T03:02:42;4.53;;;3.03;;
45694;SDS011;31408;45.468;9.124;2023-06-14T03:05:08;6.68;;;3.58;;
45694;SDS011;31408;45.468;9.124;2023-06-14T03:07:35;4.72;;;3.40;;
45694;SDS011;31408;45.468;9.124;2023-06-14T03:10:04;6.45;;;3.00;;
45694;SDS011;31408;45.468;9.124;2023-06-14T03:12:30;3.55;;;2.63;;
45694;SDS011;31408;45.468;9.124;2023-06-14T03:14:56;2.97;;;2.65;;
45694;SDS011;31408;45.468;9.124;2023-06-14T03:17:23;5.30;;;2.90;;
45694;SDS011;31408;45.468;9.124;2023-06-14T03:19:55;2.70;;;2.07;;
45694;SDS011;31408;45.468;9.124;2023-06-14T03:22:21;3.78;;;2.28;;
45694;SDS011;31408;45.468;9.124;2023-06-14T03:24:47;4.70;;;3.15;;
45694;SDS011;31408;45.468;9.124;2023-06-14T03:27:13;3.13;;;2.28;;
45694;SDS011;31408;45.468;9.124;2023-06-14T03:29:42;4.40;;;2.75;;
45694;SDS011;31408;45.468;9.124;2023-06-14T03:32:08;6.75;;;2.97;;
45694;SDS011;31408;45.468;9.124;2023-06-14T03:34:37;6.88;;;3.28;;
45694;SDS011;31408;45.468;9.124;2023-06-14T03:37:08;4.38;;;2.72;;
45694;SDS011;31408;45.468;9.124;2023-06-14T03:39:34;4.10;;;2.20;;
45694;SDS011;31408;45.468;9.124;2023-06-14T03:42:00;3.30;;;2.70;;
45694;SDS011;31408;45.468;9.124;2023-06-14T03:44:26;3.92;;;2.63;;
45694;SDS011;31408;45.468;9.124;2023-06-14T03:46:52;4.43;;;2.88;;
45694;SDS011;31408;45.468;9.124;2023-06-14T03:49:18;4.13;;;2.47;;
45694;SDS011;31408;45.468;9.124;2023-06-14T03:51:44;2.97;;;1.98;;
45694;SDS011;31408;45.468;9.124;2023-06-14T03:54:11;2.92;;;2.28;;
45694;SDS011;31408;45.468;9.124;2023-06-14T03:56:36;5.43;;;2.45;;
45694;SDS011;31408;45.468;9.124;2023-06-14T03:59:12;3.95;;;2.63;;
45694;SDS011;31408;45.468;9.124;2023-06-14T04:01:38;3.92;;;2.30;;
45694;SDS011;31408;45.468;9.124;2023-06-14T04:04:13;3.58;;;2.33;;
45694;SDS011;31408;45.468;9.124;2023-06-14T04:06:38;4.25;;;2.50;;
45694;SDS011;31408;45.468;9.124;2023-06-14T04:09:06;2.03;;;1.75;;
45694;SDS011;31408;45.468;9.124;2023-06-14T04:11:31;4.05;;;2.13;;
45694;SDS011;31408;45.468;9.124;2023-06-14T04:13:57;2.17;;;1.83;;
45694;SDS011;31408;45.468;9.124;2023-06-14T04:16:23;4.47;;;2.47;;
45694;SDS011;31408;45.468;9.124;2023-06-14T04:18:51;2.95;;;2.20;;
45694;SDS011;31408;45.468;9.124;2023-06-14T04:21:18;3.20;;;2.13;;
45694;SDS011;31408;45.468;9.124;2023-06-14T04:23:44;4.22;;;2.40;;
45694;SDS011;31408;45.468;9.124;2023-06-14T04:26:11;3.00;;;2.40;;
45694;SDS011;31408;45.468;9.124;2023-06-14T04:28:38;2.90;;;2.10;;
45694;SDS011;31408;45.468;9.124;2023-06-14T04:31:06;3.22;;;2.00;;
45694;SDS011;31408;45.468;9.124;2023-06-14T04:33:36;3.85;;;2.03;;
45694;SDS011;31408;45.468;9.124;2023-06-14T04:36:11;4.68;;;2.42;;
45694;SDS011;31408;45.468;9.124;2023-06-14T04:38:38;4.55;;;2.47;;
45694;SDS011;31408;45.468;9.124;2023-06-14T04:41:03;5.28;;;2.53;;
45694;SDS011;31408;45.468;9.124;2023-06-14T04:43:31;4.78;;;3.05;;
45694;SDS011;31408;45.468;9.124;2023-06-14T04:46:02;6.00;;;2.85;;
45694;SDS011;31408;45.468;9.124;2023-06-14T04:48:35;4.05;;;2.47;;
45694;SDS011;31408;45.468;9.124;2023-06-14T04:51:00;3.78;;;2.10;;
45694;SDS011;31408;45.468;9.124;2023-06-14T04:53:26;3.45;;;2.30;;
45694;SDS011;31408;45.468;9.124;2023-06-14T04:55:54;4.63;;;2.40;;
45694;SDS011;31408;45.468;9.124;2023-06-14T04:58:21;3.65;;;2.65;;
45694;SDS011;31408;45.468;9.124;2023-06-14T05:00:46;5.07;;;2.70;;
45694;SDS011;31408;45.468;9.124;2023-06-14T05:03:12;5.18;;;2.90;;
45694;SDS011;31408;45.468;9.124;2023-06-14T05:05:40;3.83;;;1.80;;
45694;SDS011;31408;45.468;9.124;2023-06-14T05:08:06;3.50;;;2.33;;
45694;SDS011;31408;45.468;9.124;2023-06-14T05:10:31;5.85;;;2.80;;
45694;SDS011;31408;45.468;9.124;2023-06-14T05:13:00;9.30;;;2.60;;
45694;SDS011;31408;45.468;9.124;2023-06-14T05:15:25;3.10;;;1.90;;
45694;SDS011;31408;45.468;9.124;2023-06-14T05:17:56;2.92;;;2.53;;
45694;SDS011;31408;45.468;9.124;2023-06-14T05:20:22;4.13;;;2.83;;
45694;SDS011;31408;45.468;9.124;2023-06-14T05:22:55;4.10;;;2.50;;
45694;SDS011;31408;45.468;9.124;2023-06-14T05:25:22;5.80;;;3.05;;
45694;SDS011;31408;45.468;9.124;2023-06-14T05:27:47;3.17;;;2.33;;
45694;SDS011;31408;45.468;9.124;2023-06-14T05:30:14;8.63;;;2.90;;
45694;SDS011;31408;45.468;9.124;2023-06-14T05:32:40;6.55;;;3.08;;
45694;SDS011;31408;45.468;9.124;2023-06-14T05:35:06;3.38;;;2.45;;
45694;SDS011;31408;45.468;9.124;2023-06-14T05:37:36;2.97;;;2.55;;
45694;SDS011;31408;45.468;9.124;2023-06-14T05:40:02;5.78;;;2.72;;
45694;SDS011;31408;45.468;9.124;2023-06-14T05:42:31;3.97;;;2.92;;
45694;SDS011;31408;45.468;9.124;2023-06-14T05:44:56;4.60;;;2.40;;
45694;SDS011;31408;45.468;9.124;2023-06-14T05:47:22;6.75;;;3.35;;
45694;SDS011;31408;45.468;9.124;2023-06-14T05:49:47;3.97;;;2.47;;
45694;SDS011;31408;45.468;9.124;2023-06-14T05:52:13;5.50;;;3.45;;
45694;SDS011;31408;45.468;9.124;2023-06-14T05:54:38;5.05;;;2.58;;
45694;SDS011;31408;45.468;9.124;2023-06-14T05:57:04;4.32;;;3.25;;
45694;SDS011;31408;45.468;9.124;2023-06-14T05:59:41;7.40;;;2.90;;
45694;SDS011;31408;45.468;9.124;2023-06-14T06:02:06;4.72;;;2.85;;
45694;SDS011;31408;45.468;9.124;2023-06-14T06:04:32;4.90;;;2.90;;
45694;SDS011;31408;45.468;9.124;2023-06-14T06:06:57;6.55;;;2.67;;
45694;SDS011;31408;45.468;9.124;2023-06-14T06:09:32;7.50;;;3.33;;
45694;SDS011;31408;45.468;9.124;2023-06-14T06:11:57;7.10;;;3.47;;
45694;SDS011;31408;45.468;9.124;2023-06-14T06:14:23;4.80;;;2.95;;
45694;SDS011;31408;45.468;9.124;2023-06-14T06:16:48;6.13;;;3.22;;
45694;SDS011;31408;45.468;9.124;2023-06-14T06:19:14;4.88;;;3.20;;
45694;SDS011;31408;45.468;9.124;2023-06-14T06:21:40;7.47;;;3.80;;
45694;SDS011;31408;45.468;9.124;2023-06-14T06:24:05;7.72;;;3.05;;
45694;SDS011;31408;45.468;9.124;2023-06-14T06:26:31;8.05;;;3.42;;
45694;SDS011;31408;45.468;9.124;2023-06-14T06:28:57;5.75;;;3.35;;
45694;SDS011;31408;45.468;9.124;2023-06-14T06:31:23;11.68;;;3.70;;
45694;SDS011;31408;45.468;9.124;2023-06-14T06:33:53;5.05;;;3.20;;
45694;SDS011;31408;45.468;9.124;2023-06-14T06:36:21;9.45;;;3.33;;
45694;SDS011;31408;45.468;9.124;2023-06-14T06:38:47;13.75;;;3.72;;
45694;SDS011;31408;45.468;9.124;2023-06-14T06:41:13;8.82;;;3.47;;
45694;SDS011;31408;45.468;9.124;2023-06-14T06:43:38;6.97;;;3.83;;
45694;SDS011;31408;45.468;9.124;2023-06-14T06:46:04;5.22;;;3.33;;
45694;SDS011;31408;45.468;9.124;2023-06-14T06:48:29;5.63;;;3.53;;
45694;SDS011;31408;45.468;9.124;2023-06-14T06:50:55;11.40;;;3.22;;
45694;SDS011;31408;45.468;9.124;2023-06-14T06:53:21;14.27;;;4.35;;
45694;SDS011;31408;45.468;9.124;2023-06-14T06:55:46;14.57;;;6.47;;
45694;SDS011;31408;45.468;9.124;2023-06-14T06:58:12;8.95;;;4.43;;
45694;SDS011;31408;45.468;9.124;2023-06-14T07:00:38;8.77;;;4.03;;
45694;SDS011;31408;45.468;9.124;2023-06-14T07:03:04;9.90;;;3.92;;
45694;SDS011;31408;45.468;9.124;2023-06-14T07:05:30;27.80;;;5.00;;
45694;SDS011;31408;45.468;9.124;2023-06-14T07:07:55;15.07;;;4.00;;
45694;SDS011;31408;45.468;9.124;2023-06-14T07:10:21;11.43;;;3.83;;
45694;SDS011;31408;45.468;9.124;2023-06-14T07:12:46;6.68;;;4.00;;
45694;SDS011;31408;45.468;9.124;2023-06-14T07:15:12;8.57;;;3.65;;
45694;SDS011;31408;45.468;9.124;2023-06-14T07:17:37;6.72;;;3.83;;
45694;SDS011;31408;45.468;9.124;2023-06-14T07:20:03;9.52;;;3.90;;
45694;SDS011;31408;45.468;9.124;2023-06-14T07:22:33;6.00;;;3.90;;
45694;SDS011;31408;45.468;9.124;2023-06-14T07:24:58;6.38;;;3.80;;
45694;SDS011;31408;45.468;9.124;2023-06-14T07:27:24;6.63;;;3.63;;
45694;SDS011;31408;45.468;9.124;2023-06-14T07:29:49;12.95;;;4.75;;
45694;SDS011;31408;45.468;9.124;2023-06-14T07:32:15;9.18;;;4.10;;
45694;SDS011;31408;45.468;9.124;2023-06-14T07:34:40;12.70;;;4.93;;
45694;SDS011;31408;45.468;9.124;2023-06-14T07:37:06;10.90;;;4.68;;
45694;SDS011;31408;45.468;9.124;2023-06-14T07:39:32;11.43;;;5.07;;
45694;SDS011;31408;45.468;9.124;2023-06-14T07:41:57;9.45;;;3.95;;
45694;SDS011;31408;45.468;9.124;2023-06-14T07:44:23;9.88;;;4.10;;
45694;SDS011;31408;45.468;9.124;2023-06-14T07:46:48;22.60;;;6.35;;
45694;SDS011;31408;45.468;9.124;2023-06-14T07:49:16;10.25;;;3.85;;
45694;SDS011;31408;45.468;9.124;2023-06-14T07:51:42;6.70;;;3.17;;
45694;SDS011;31408;45.468;9.124;2023-06-14T07:54:09;12.18;;;4.20;;
45694;SDS011;31408;45.468;9.124;2023-06-14T07:56:35;4.78;;;2.88;;
45694;SDS011;31408;45.468;9.124;2023-06-14T07:59:01;4.78;;;3.42;;
45694;SDS011;31408;45.468;9.124;2023-06-14T08:01:26;6.43;;;4.07;;
45694;SDS011;31408;45.468;9.124;2023-06-14T08:03:53;6.80;;;3.70;;
45694;SDS011;31408;45.468;9.124;2023-06-14T08:06:18;7.35;;;4.20;;
45694;SDS011;31408;45.468;9.124;2023-06-14T08:08:44;7.25;;;3.83;;
45694;SDS011;31408;45.468;9.124;2023-06-14T08:11:09;5.00;;;3.65;;
45694;SDS011;31408;45.468;9.124;2023-06-14T08:13:35;6.70;;;4.18;;
45694;SDS011;31408;45.468;9.124;2023-06-14T08:16:00;13.85;;;4.47;;
45694;SDS011;31408;45.468;9.124;2023-06-14T08:18:26;7.70;;;4.40;;
45694;SDS011;31408;45.468;9.124;2023-06-14T08:20:55;8.35;;;3.88;;
45694;SDS011;31408;45.468;9.124;2023-06-14T08:23:22;8.65;;;3.78;;
45694;SDS011;31408;45.468;9.124;2023-06-14T08:25:48;10.43;;;4.03;;
45694;SDS011;31408;45.468;9.124;2023-06-14T08:28:28;12.43;;;4.00;;
45694;SDS011;31408;45.468;9.124;2023-06-14T08:30:54;21.02;;;4.72;;
45694;SDS011;31408;45.468;9.124;2023-06-14T08:33:19;11.98;;;3.65;;
45694;SDS011;31408;45.468;9.124;2023-06-14T08:35:44;15.63;;;4.65;;
45694;SDS011;31408;45.468;9.124;2023-06-14T08:38:15;8.25;;;3.50;;
45694;SDS011;31408;45.468;9.124;2023-06-14T08:40:41;8.45;;;4.43;;
45694;SDS011;31408;45.468;9.124;2023-06-14T08:43:07;11.35;;;4.60;;
45694;SDS011;31408;45.468;9.124;2023-06-14T08:45:32;27.13;;;6.53;;
45694;SDS011;31408;45.468;9.124;2023-06-14T08:47:58;25.92;;;6.32;;
45694;SDS011;31408;45.468;9.124;2023-06-14T08:50:25;16.60;;;5.07;;
45694;SDS011;31408;45.468;9.124;2023-06-14T08:52:57;20.50;;;5.53;;
45694;SDS011;31408;45.468;9.124;2023-06-14T08:55:27;12.75;;;5.05;;
45694;SDS011;31408;45.468;9.124;2023-06-14T08:57:54;11.38;;;5.78;;
45694;SDS011;31408;45.468;9.124;2023-06-14T09:00:22;16.73;;;6.38;;
45694;SDS011;31408;45.468;9.124;2023-06-14T09:02:49;11.25;;;5.25;;
45694;SDS011;31408;45.468;9.124;2023-06-14T09:05:21;13.30;;;5.57;;
45694;SDS011;31408;45.468;9.124;2023-06-14T09:07:48;10.80;;;6.13;;
45694;SDS011;31408;45.468;9.124;2023-06-14T09:10:15;14.25;;;5.53;;
45694;SDS011;31408;45.468;9.124;2023-06-14T09:12:42;43.05;;;8.10;;
45694;SDS011;31408;45.468;9.124;2023-06-14T09:15:08;20.23;;;7.28;;
45694;SDS011;31408;45.468;9.124;2023-06-14T09:17:34;10.27;;;5.35;;
45694;SDS011;31408;45.468;9.124;2023-06-14T09:20:07;11.35;;;5.85;;
45694;SDS011;31408;45.468;9.124;2023-06-14T09:22:38;37.88;;;7.80;;
45694;SDS011;31408;45.468;9.124;2023-06-14T09:25:04;22.92;;;6.22;;
45694;SDS011;31408;45.468;9.124;2023-06-14T09:27:31;10.00;;;5.05;;
45694;SDS011;31408;45.468;9.124;2023-06-14T09:29:57;21.48;;;7.55;;
45694;SDS011;31408;45.468;9.124;2023-06-14T09:32:22;40.13;;;8.82;;
45694;SDS011;31408;45.468;9.124;2023-06-14T09:34:48;26.63;;;8.23;;
45694;SDS011;31408;45.468;9.124;2023-06-14T09:37:25;15.32;;;6.60;;
45694;SDS011;31408;45.468;9.124;2023-06-14T09:39:51;19.05;;;5.40;;
45694;SDS011;31408;45.468;9.124;2023-06-14T09:42:17;8.55;;;4.53;;
45694;SDS011;31408;45.468;9.124;2023-06-14T09:44:47;11.05;;;5.03;;
45694;SDS011;31408;45.468;9.124;2023-06-14T09:47:14;12.38;;;5.22;;
45694;SDS011;31408;45.468;9.124;2023-06-14T09:49:40;30.40;;;7.03;;
45694;SDS011;31408;45.468;9.124;2023-06-14T09:52:06;25.83;;;6.22;;
45694;SDS011;31408;45.468;9.124;2023-06-14T09:54:40;19.63;;;6.18;;
45694;SDS011;31408;45.468;9.124;2023-06-14T09:57:11;12.50;;;4.70;;
45694;SDS011;31408;45.468;9.124;2023-06-14T09:59:40;13.43;;;5.32;;
45694;SDS011;31408;45.468;9.124;2023-06-14T10:02:10;8.35;;;4.38;;
45694;SDS011;31408;45.468;9.124;2023-06-14T10:04:46;15.02;;;5.72;;
45694;SDS011;31408;45.468;9.124;2023-06-14T10:07:13;11.75;;;5.63;;
45694;SDS011;31408;45.468;9.124;2023-06-14T10:09:40;8.23;;;4.53;;
45694;SDS011;31408;45.468;9.124;2023-06-14T10:12:09;7.75;;;4.28;;
45694;SDS011;31408;45.468;9.124;2023-06-14T10:14:35;8.93;;;4.70;;
45694;SDS011;31408;45.468;9.124;2023-06-14T10:17:11;8.75;;;5.20;;
45694;SDS011;31408;45.468;9.124;2023-06-14T10:19:49;7.30;;;4.25;;
45694;SDS011;31408;45.468;9.124;2023-06-14T10:24:50;8.15;;;4.30;;
45694;SDS011;31408;45.468;9.124;2023-06-14T10:27:15;10.93;;;4.85;;
45694;SDS011;31408;45.468;9.124;2023-06-14T10:32:23;7.05;;;4.55;;
45694;SDS011;31408;45.468;9.124;2023-06-14T10:34:59;8.88;;;4.25;;
45694;SDS011;31408;45.468;9.124;2023-06-14T10:37:32;9.55;;;4.63;;
45694;SDS011;31408;45.468;9.124;2023-06-14T10:39:58;10.27;;;5.50;;
45694;SDS011;31408;45.468;9.124;2023-06-14T10:42:27;13.20;;;4.50;;
45694;SDS011;31408;45.468;9.124;2023-06-14T10:44:55;9.68;;;5.18;;
45694;SDS011;31408;45.468;9.124;2023-06-14T10:50:07;8.82;;;4.65;;
45694;SDS011;31408;45.468;9.124;2023-06-14T10:52:34;10.95;;;5.03;;
45694;SDS011;31408;45.468;9.124;2023-06-14T10:55:09;10.10;;;5.25;;
45694;SDS011;31408;45.468;9.124;2023-06-14T10:57:53;7.95;;;5.03;;
45694;SDS011;31408;45.468;9.124;2023-06-14T11:00:24;7.72;;;4.45;;
45694;SDS011;31408;45.468;9.124;2023-06-14T11:11:00;10.07;;;5.78;;
45694;SDS011;31408;45.468;9.124;2023-06-14T11:13:26;11.48;;;4.47;;
45694;SDS011;31408;45.468;9.124;2023-06-14T11:15:51;8.98;;;4.93;;
45694;SDS011;31408;45.468;9.124;2023-06-14T11:18:22;7.55;;;5.00;;
45694;SDS011;31408;45.468;9.124;2023-06-14T11:20:50;6.43;;;3.58;;
45694;SDS011;31408;45.468;9.124;2023-06-14T11:23:15;7.82;;;3.67;;
45694;SDS011;31408;45.468;9.124;2023-06-14T11:25:41;9.23;;;3.70;;
45694;SDS011;31408;45.468;9.124;2023-06-14T11:28:06;6.55;;;4.38;;
45694;SDS011;31408;45.468;9.124;2023-06-14T11:30:32;7.03;;;3.67;;
45694;SDS011;31408;45.468;9.124;2023-06-14T11:32:57;8.63;;;5.03;;
45694;SDS011;31408;45.468;9.124;2023-06-14T11:35:23;10.00;;;5.20;;
45694;SDS011;31408;45.468;9.124;2023-06-14T11:37:52;8.73;;;4.47;;
45694;SDS011;31408;45.468;9.124;2023-06-14T11:40:18;6.82;;;3.88;;
45694;SDS011;31408;45.468;9.124;2023-06-14T11:42:44;8.95;;;5.15;;
45694;SDS011;31408;45.468;9.124;2023-06-14T11:45:10;8.10;;;4.28;;
45694;SDS011;31408;45.468;9.124;2023-06-14T11:47:38;11.70;;;5.55;;
45694;SDS011;31408;45.468;9.124;2023-06-14T11:50:05;13.68;;;5.50;;
45694;SDS011;31408;45.468;9.124;2023-06-14T11:52:32;10.50;;;6.18;;
45694;SDS011;31408;45.468;9.124;2023-06-14T11:54:57;10.50;;;4.68;;
45694;SDS011;31408;45.468;9.124;2023-06-14T11:57:24;8.57;;;4.93;;
45694;SDS011;31408;45.468;9.124;2023-06-14T11:59:50;14.52;;;8.45;;
45694;SDS011;31408;45.468;9.124;2023-06-14T12:02:16;14.73;;;6.40;;
45694;SDS011;31408;45.468;9.124;2023-06-14T12:04:42;11.32;;;5.82;;
45694;SDS011;31408;45.468;9.124;2023-06-14T12:07:09;12.13;;;6.50;;
45694;SDS011;31408;45.468;9.124;2023-06-14T12:10:25;10.65;;;6.07;;
45694;SDS011;31408;45.468;9.124;2023-06-14T12:12:26;11.27;;;5.68;;
45694;SDS011;31408;45.468;9.124;2023-06-14T12:14:52;8.15;;;4.75;;
45694;SDS011;31408;45.468;9.124;2023-06-14T12:17:18;8.25;;;4.38;;
45694;SDS011;31408;45.468;9.124;2023-06-14T12:19:44;12.00;;;6.22;;
45694;SDS011;31408;45.468;9.124;2023-06-14T12:22:11;14.52;;;5.70;;
45694;SDS011;31408;45.468;9.124;2023-06-14T12:24:43;10.05;;;5.43;;
45694;SDS011;31408;45.468;9.124;2023-06-14T12:27:09;10.75;;;6.00;;
45694;SDS011;31408;45.468;9.124;2023-06-14T12:29:37;11.75;;;6.10;;
45694;SDS011;31408;45.468;9.124;2023-06-14T12:32:02;10.85;;;5.18;;
45694;SDS011;31408;45.468;9.124;2023-06-14T12:34:28;6.75;;;4.40;;
45694;SDS011;31408;45.468;9.124;2023-06-14T12:36:54;6.80;;;3.85;;
45694;SDS011;31408;45.468;9.124;2023-06-14T12:39:20;8.50;;;4.10;;
45694;SDS011;31408;45.468;9.124;2023-06-14T12:41:49;6.63;;;4.00;;
45694;SDS011;31408;45.468;9.124;2023-06-14T12:44:15;8.95;;;4.53;;
45694;SDS011;31408;45.468;9.124;2023-06-14T12:46:43;8.75;;;5.47;;
45694;SDS011;31408;45.468;9.124;2023-06-14T12:49:10;6.30;;;4.13;;
45694;SDS011;31408;45.468;9.124;2023-06-14T12:51:36;6.68;;;4.13;;
45694;SDS011;31408;45.468;9.124;2023-06-14T12:54:03;11.57;;;5.20;;
45694;SDS011;31408;45.468;9.124;2023-06-14T12:56:28;8.20;;;4.80;;
45694;SDS011;31408;45.468;9.124;2023-06-14T12:58:54;8.30;;;4.55;;
45694;SDS011;31408;45.468;9.124;2023-06-14T13:01:19;8.95;;;3.65;;
45694;SDS011;31408;45.468;9.124;2023-06-14T13:03:48;7.10;;;3.40;;
45694;SDS011;31408;45.468;9.124;2023-06-14T13:06:14;6.70;;;3.75;;
45694;SDS011;31408;45.468;9.124;2023-06-14T13:08:40;5.05;;;3.60;;
45694;SDS011;31408;45.468;9.124;2023-06-14T13:11:05;4.70;;;3.00;;
45694;SDS011;31408;45.468;9.124;2023-06-14T13:13:31;6.30;;;3.13;;
45694;SDS011;31408;45.468;9.124;2023-06-14T13:15:56;5.93;;;3.63;;
45694;SDS011;31408;45.468;9.124;2023-06-14T13:18:22;7.25;;;4.18;;
45694;SDS011;31408;45.468;9.124;2023-06-14T13:20:47;11.63;;;4.43;;
45694;SDS011;31408;45.468;9.124;2023-06-14T13:23:13;9.25;;;4.85;;
45694;SDS011;31408;45.468;9.124;2023-06-14T13:25:38;10.75;;;4.68;;
45694;SDS011;31408;45.468;9.124;2023-06-14T13:28:04;6.82;;;4.30;;
45694;SDS011;31408;45.468;9.124;2023-06-14T13:30:30;6.18;;;2.78;;
45694;SDS011;31408;45.468;9.124;2023-06-14T13:32:56;6.45;;;3.70;;
45694;SDS011;31408;45.468;9.124;2023-06-14T13:35:22;6.07;;;3.50;;
45694;SDS011;31408;45.468;9.124;2023-06-14T13:37:48;6.82;;;3.63;;
45694;SDS011;31408;45.468;9.124;2023-06-14T13:40:14;4.13;;;2.80;;
45694;SDS011;31408;45.468;9.124;2023-06-14T13:42:39;7.00;;;4.20;;
45694;SDS011;31408;45.468;9.124;2023-06-14T13:45:05;17.67;;;6.55;;
45694;SDS011;31408;45.468;9.124;2023-06-14T13:47:31;9.77;;;4.55;;
45694;SDS011;31408;45.468;9.124;2023-06-14T13:49:57;10.90;;;3.45;;
45694;SDS011;31408;45.468;9.124;2023-06-14T13:52:23;9.65;;;3.33;;
45694;SDS011;31408;45.468;9.124;2023-06-14T13:54:49;4.50;;;2.92;;
45694;SDS011;31408;45.468;9.124;2023-06-14T13:57:15;7.32;;;3.25;;
45694;SDS011;31408;45.468;9.124;2023-06-14T13:59:41;9.77;;;4.15;;
45694;SDS011;31408;45.468;9.124;2023-06-14T14:02:06;4.80;;;2.85;;
45694;SDS011;31408;45.468;9.124;2023-06-14T14:04:33;12.18;;;4.45;;
45694;SDS011;31408;45.468;9.124;2023-06-14T14:06:59;22.15;;;4.32;;
45694;SDS011;31408;45.468;9.124;2023-06-14T14:09:25;10.82;;;3.67;;
45694;SDS011;31408;45.468;9.124;2023-06-14T14:11:50;5.18;;;3.83;;
45694;SDS011;31408;45.468;9.124;2023-06-14T14:14:15;5.82;;;3.50;;
45694;SDS011;31408;45.468;9.124;2023-06-14T14:16:41;3.10;;;2.42;;
45694;SDS011;31408;45.468;9.124;2023-06-14T14:19:07;23.83;;;4.47;;
45694;SDS011;31408;45.468;9.124;2023-06-14T14:21:32;5.85;;;2.47;;
45694;SDS011;31408;45.468;9.124;2023-06-14T14:23:58;8.50;;;4.22;;
45694;SDS011;31408;45.468;9.124;2023-06-14T14:26:23;7.35;;;3.63;;
45694;SDS011;31408;45.468;9.124;2023-06-14T14:28:50;12.88;;;4.03;;
45694;SDS011;31408;45.468;9.124;2023-06-14T14:31:16;7.40;;;3.22;;
45694;SDS011;31408;45.468;9.124;2023-06-14T14:33:41;6.88;;;3.70;;
45694;SDS011;31408;45.468;9.124;2023-06-14T14:36:07;9.18;;;4.05;;
45694;SDS011;31408;45.468;9.124;2023-06-14T14:38:33;6.70;;;3.25;;
45694;SDS011;31408;45.468;9.124;2023-06-14T14:40:58;4.05;;;2.47;;
45694;SDS011;31408;45.468;9.124;2023-06-14T14:43:24;3.63;;;2.95;;
45694;SDS011;31408;45.468;9.124;2023-06-14T14:45:49;7.22;;;3.45;;
45694;SDS011;31408;45.468;9.124;2023-06-14T14:48:15;10.95;;;3.97;;
45694;SDS011;31408;45.468;9.124;2023-06-14T14:50:40;7.45;;;4.47;;
45694;SDS011;31408;45.468;9.124;2023-06-14T14:53:06;10.38;;;5.78;;
45694;SDS011;31408;45.468;9.124;2023-06-14T14:55:31;7.97;;;4.55;;
45694;SDS011;31408;45.468;9.124;2023-06-14T14:58:00;5.22;;;3.38;;
45694;SDS011;31408;45.468;9.124;2023-06-14T15:00:25;5.22;;;2.88;;